createdAt,value
2023-08-14T00:01:47.675Z,19.63
2023-08-14T00:04:14.548Z,19.59
2023-08-14T00:06:41.426Z,19.55
2023-08-14T00:09:08.463Z,19.51
2023-08-14T00:11:35.330Z,19.47
2023-08-14T00:14:02.796Z,19.43
2023-08-14T00:16:29.591Z,19.39
2023-08-14T00:18:56.431Z,19.35
2023-08-14T00:21:25.173Z,19.32
2023-08-14T00:23:52.312Z,19.28
2023-08-14T00:26:19.101Z,19.25
2023-08-14T00:28:45.956Z,19.22
2023-08-14T00:31:12.892Z,19.18
2023-08-14T00:33:40.505Z,19.14
2023-08-14T00:36:07.448Z,19.12
2023-08-14T00:38:34.248Z,19.09
2023-08-14T00:41:01.088Z,19.07
2023-08-14T00:43:27.956Z,19.04
2023-08-14T00:45:59.029Z,19.01
2023-08-14T00:48:26.741Z,18.98
2023-08-14T00:50:55.789Z,18.95
2023-08-14T00:53:27.642Z,18.91
2023-08-14T00:55:55.554Z,18.87
2023-08-14T00:58:26.263Z,18.83
2023-08-14T01:00:54.117Z,18.81
2023-08-14T01:03:21.922Z,18.77
2023-08-14T01:05:48.803Z,18.74
2023-08-14T01:08:15.659Z,18.72
2023-08-14T01:10:56.436Z,18.68
2023-08-14T01:13:36.797Z,18.67
2023-08-14T01:16:12.239Z,18.66
2023-08-14T01:18:40.718Z,18.67
2023-08-14T01:21:17.219Z,18.67
2023-08-14T01:24:09.852Z,18.68
2023-08-14T01:26:37.348Z,18.69
2023-08-14T01:29:04.848Z,18.71
2023-08-14T01:31:32.199Z,18.73
2023-08-14T01:33:59.093Z,18.76
2023-08-14T01:36:58.929Z,18.78
2023-08-14T01:39:37.208Z,18.79
2023-08-14T01:42:06.860Z,18.80
2023-08-14T01:44:36.425Z,18.80
2023-08-14T01:47:05.396Z,18.80
2023-08-14T01:49:33.403Z,18.79
2023-08-14T01:52:01.292Z,18.76
2023-08-14T01:54:28.768Z,18.77
2023-08-14T01:56:57.653Z,18.78
2023-08-14T01:59:36.983Z,18.77
2023-08-14T02:02:03.681Z,18.77
2023-08-14T02:04:30.566Z,18.75
2023-08-14T02:06:57.524Z,18.75
2023-08-14T02:09:24.391Z,18.75
2023-08-14T02:11:51.183Z,18.75
2023-08-14T02:14:18.462Z,18.76
2023-08-14T02:16:45.349Z,18.76
2023-08-14T02:19:12.272Z,18.77
2023-08-14T02:21:39.167Z,18.78
2023-08-14T02:24:07.040Z,18.77
2023-08-14T02:26:33.895Z,18.75
2023-08-14T02:29:02.099Z,18.75
2023-08-14T02:31:28.921Z,18.74
2023-08-14T02:34:03.005Z,18.73
2023-08-14T02:36:30.223Z,18.73
2023-08-14T02:38:57.065Z,18.73
2023-08-14T02:41:23.891Z,18.73
2023-08-14T02:43:50.780Z,18.73
2023-08-14T02:46:17.653Z,18.71
2023-08-14T02:48:46.523Z,18.71
2023-08-14T02:51:13.597Z,18.70
2023-08-14T02:53:40.412Z,18.69
2023-08-14T02:56:07.604Z,18.69
2023-08-14T02:58:36.897Z,18.69
2023-08-14T03:01:05.531Z,18.67
2023-08-14T03:03:32.540Z,18.66
2023-08-14T03:06:00.470Z,18.64
2023-08-14T03:08:27.837Z,18.63
2023-08-14T03:10:54.675Z,18.62
2023-08-14T03:13:22.368Z,18.62
2023-08-14T03:15:49.231Z,18.62
2023-08-14T03:18:16.011Z,18.62
2023-08-14T03:20:42.868Z,18.63
2023-08-14T03:23:12.150Z,18.63
2023-08-14T03:25:39.124Z,18.64
2023-08-14T03:28:06.768Z,18.64
2023-08-14T03:30:34.960Z,18.64
2023-08-14T03:33:01.982Z,18.64
2023-08-14T03:35:28.809Z,18.65
2023-08-14T03:37:55.709Z,18.65
2023-08-14T03:40:22.574Z,18.64
2023-08-14T03:42:49.400Z,18.65
2023-08-14T03:45:16.837Z,18.65
2023-08-14T03:47:43.998Z,18.65
2023-08-14T03:50:10.985Z,18.66
2023-08-14T03:52:37.895Z,18.67
2023-08-14T03:55:04.935Z,18.68
2023-08-14T03:57:31.863Z,18.71
2023-08-14T03:59:58.720Z,18.74
2023-08-14T04:02:25.732Z,18.75
2023-08-14T04:04:52.867Z,18.77
2023-08-14T04:07:19.765Z,18.79
2023-08-14T04:09:46.605Z,18.81
2023-08-14T04:12:13.548Z,18.83
2023-08-14T04:14:40.466Z,18.85
2023-08-14T04:17:07.497Z,18.87
2023-08-14T04:19:34.374Z,18.89
2023-08-14T04:22:01.216Z,18.91
2023-08-14T04:24:28.460Z,18.94
2023-08-14T04:26:55.518Z,18.98
2023-08-14T04:29:22.350Z,19.03
2023-08-14T04:31:49.288Z,19.09
2023-08-14T04:34:16.134Z,19.12
2023-08-14T04:36:42.979Z,19.15
2023-08-14T04:39:09.846Z,19.20
2023-08-14T04:41:36.715Z,19.29
2023-08-14T04:44:03.926Z,19.43
2023-08-14T04:46:53.208Z,19.51
2023-08-14T04:49:21.001Z,19.58
2023-08-14T04:51:47.789Z,19.66
2023-08-14T04:54:14.601Z,19.80
2023-08-14T04:56:41.620Z,20.01
2023-08-14T04:59:08.453Z,20.18
2023-08-14T05:01:35.283Z,20.41
2023-08-14T05:04:02.105Z,20.63
2023-08-14T05:06:29.095Z,20.89
2023-08-14T05:08:55.898Z,21.17
2023-08-14T05:11:22.791Z,21.44
2023-08-14T05:13:49.739Z,21.73
2023-08-14T05:16:16.685Z,21.99
2023-08-14T05:18:43.559Z,22.24
2023-08-14T05:21:10.790Z,22.40
2023-08-14T05:23:37.931Z,22.59
2023-08-14T05:26:04.798Z,22.73
2023-08-14T05:28:31.788Z,22.87
2023-08-14T05:30:58.610Z,23.10
2023-08-14T05:33:25.649Z,23.38
2023-08-14T05:35:56.646Z,23.70
2023-08-14T05:38:23.460Z,24.03
2023-08-14T05:40:50.267Z,24.34
2023-08-14T05:43:17.357Z,24.63
2023-08-14T05:45:46.639Z,24.93
2023-08-14T05:48:15.478Z,25.24
2023-08-14T05:50:43.271Z,25.54
2023-08-14T05:53:10.862Z,25.82
2023-08-14T05:55:42.794Z,26.10
2023-08-14T05:58:09.951Z,26.38
2023-08-14T06:00:38.809Z,26.65
2023-08-14T06:03:06.841Z,26.88
2023-08-14T06:05:35.164Z,27.08
2023-08-14T06:08:03.054Z,27.22
2023-08-14T06:10:30.225Z,27.36
2023-08-14T06:12:57.732Z,27.49
2023-08-14T06:15:26.528Z,27.59
2023-08-14T06:17:53.952Z,27.66
2023-08-14T06:20:21.643Z,27.72
2023-08-14T06:22:48.933Z,27.76
2023-08-14T06:25:18.194Z,27.80
2023-08-14T06:27:45.237Z,27.89
2023-08-14T06:30:13.443Z,27.96
2023-08-14T06:32:40.743Z,28.05
2023-08-14T06:35:09.205Z,28.13
2023-08-14T06:37:36.590Z,28.20
2023-08-14T06:40:05.415Z,28.26
2023-08-14T06:42:32.120Z,28.36
2023-08-14T06:44:59.224Z,28.47
2023-08-14T06:47:26.452Z,28.59
2023-08-14T06:49:53.495Z,28.72
2023-08-14T06:52:20.965Z,28.85
2023-08-14T06:54:48.306Z,28.95
2023-08-14T06:57:35.297Z,29.03
2023-08-14T07:00:13.765Z,29.06
2023-08-14T07:02:42.031Z,29.07
2023-08-14T07:05:11.478Z,29.10
2023-08-14T07:07:39.732Z,29.11
2023-08-14T07:10:08.009Z,29.11
2023-08-14T07:12:35.101Z,29.15
2023-08-14T07:15:02.148Z,29.22
2023-08-14T07:17:29.554Z,29.32
2023-08-14T07:19:56.647Z,29.45
2023-08-14T07:22:23.718Z,29.51
2023-08-14T07:24:50.670Z,29.59
2023-08-14T07:27:18.731Z,29.67
2023-08-14T07:29:45.820Z,29.76
2023-08-14T07:32:13.059Z,29.81
2023-08-14T07:34:40.031Z,29.90
2023-08-14T07:37:07.146Z,30.03
2023-08-14T07:39:34.228Z,30.15
2023-08-14T07:42:01.415Z,30.27
2023-08-14T07:44:28.387Z,30.39
2023-08-14T07:46:55.509Z,30.50
2023-08-14T07:49:22.500Z,30.59
2023-08-14T07:51:50.173Z,30.69
2023-08-14T07:54:18.196Z,30.79
2023-08-14T07:56:47.076Z,30.87
2023-08-14T07:59:15.196Z,30.87
2023-08-14T08:01:43.085Z,30.82
2023-08-14T08:04:10.645Z,30.84
2023-08-14T08:06:44.675Z,30.86
2023-08-14T08:09:13.679Z,30.88
2023-08-14T08:11:40.738Z,30.92
2023-08-14T08:14:08.160Z,30.94
2023-08-14T08:16:38.767Z,31.00
2023-08-14T08:19:08.145Z,31.07
2023-08-14T08:21:35.250Z,31.14
2023-08-14T08:24:02.355Z,31.18
2023-08-14T08:26:29.469Z,31.13
2023-08-14T08:28:56.576Z,31.05
2023-08-14T08:31:25.199Z,31.01
2023-08-14T08:33:51.909Z,31.03
2023-08-14T08:36:19.211Z,31.06
2023-08-14T08:38:46.855Z,31.05
2023-08-14T08:41:23.959Z,31.02
2023-08-14T08:44:00.713Z,30.95
2023-08-14T08:46:30.636Z,30.93
2023-08-14T08:48:58.112Z,30.92
2023-08-14T08:51:25.576Z,30.89
2023-08-14T08:53:52.449Z,30.88
2023-08-14T08:56:19.782Z,30.89
2023-08-14T08:58:47.488Z,30.91
2023-08-14T09:01:14.918Z,30.87
2023-08-14T09:03:42.144Z,30.88
2023-08-14T09:06:09.358Z,30.89
2023-08-14T09:08:37.484Z,30.87
2023-08-14T09:11:04.697Z,30.89
2023-08-14T09:13:32.727Z,30.92
2023-08-14T09:16:02.449Z,30.98
2023-08-14T09:18:31.971Z,30.99
2023-08-14T09:20:59.834Z,31.01
2023-08-14T09:23:27.011Z,30.98
2023-08-14T09:25:54.053Z,30.90
2023-08-14T09:28:23.042Z,30.78
2023-08-14T09:30:50.049Z,30.71
2023-08-14T09:33:17.276Z,30.71
2023-08-14T09:35:53.216Z,30.72
2023-08-14T09:38:20.772Z,30.70
2023-08-14T09:40:47.685Z,30.69
2023-08-14T09:43:14.699Z,30.68
2023-08-14T09:45:41.631Z,30.69
2023-08-14T09:48:09.713Z,30.63
2023-08-14T09:50:37.119Z,30.52
2023-08-14T09:53:04.103Z,30.43
2023-08-14T09:55:31.037Z,30.39
2023-08-14T09:57:58.300Z,30.42
2023-08-14T10:00:30.436Z,30.43
2023-08-14T10:03:03.054Z,30.44
2023-08-14T10:05:31.627Z,30.45
2023-08-14T10:07:59.901Z,30.45
2023-08-14T10:10:31.194Z,30.41
2023-08-14T10:13:06.220Z,30.36
2023-08-14T10:15:40.875Z,30.33
2023-08-14T10:18:16.805Z,30.34
2023-08-14T10:20:49.493Z,30.34
2023-08-14T10:23:17.862Z,30.33
2023-08-14T10:25:51.766Z,30.30
2023-08-14T10:28:22.084Z,30.28
2023-08-14T10:30:49.413Z,30.33
2023-08-14T10:33:18.804Z,30.40
2023-08-14T10:35:55.651Z,30.47
2023-08-14T10:38:45.505Z,30.48
2023-08-14T10:41:12.633Z,30.48
2023-08-14T10:43:39.654Z,30.46
2023-08-14T10:46:15.760Z,30.45
2023-08-14T10:48:44.737Z,30.44
2023-08-14T10:51:16.991Z,30.43
2023-08-14T10:53:46.147Z,30.44
2023-08-14T10:56:13.827Z,30.49
2023-08-14T10:58:48.928Z,30.52
2023-08-14T11:01:17.963Z,30.59
2023-08-14T11:04:06.248Z,30.64
2023-08-14T11:07:00.968Z,30.63
2023-08-14T11:09:32.586Z,30.59
2023-08-14T11:12:03.866Z,30.54
2023-08-14T11:14:30.641Z,30.46
2023-08-14T11:16:58.162Z,30.41
2023-08-14T11:19:25.460Z,30.39
2023-08-14T11:21:52.777Z,30.40
2023-08-14T11:24:19.866Z,30.41
2023-08-14T11:26:46.819Z,30.42
2023-08-14T11:29:13.809Z,30.40
2023-08-14T11:31:49.620Z,30.39
2023-08-14T11:34:17.509Z,30.45
2023-08-14T11:37:07.104Z,30.51
2023-08-14T11:39:45.111Z,30.54
2023-08-14T11:42:12.279Z,30.54
2023-08-14T11:44:39.525Z,30.55
2023-08-14T11:47:08.348Z,30.58
2023-08-14T11:49:39.533Z,30.64
2023-08-14T11:52:07.656Z,30.70
2023-08-14T11:54:36.809Z,30.73
2023-08-14T11:57:06.338Z,30.76
2023-08-14T11:59:33.910Z,30.79
2023-08-14T12:02:02.011Z,30.80
2023-08-14T12:04:29.006Z,30.84
2023-08-14T12:06:56.513Z,30.84
2023-08-14T12:09:29.718Z,30.85
2023-08-14T12:11:56.909Z,30.85
2023-08-14T12:14:23.911Z,30.82
2023-08-14T12:16:50.975Z,30.81
2023-08-14T12:19:20.957Z,30.83
2023-08-14T12:21:56.959Z,30.84
2023-08-14T12:24:24.835Z,30.84
2023-08-14T12:26:52.061Z,30.83
2023-08-14T12:29:22.112Z,30.85
2023-08-14T12:58:26.792Z,30.94
2023-08-14T13:00:54.774Z,30.96
2023-08-14T13:03:38.006Z,31.01
2023-08-14T13:06:08.376Z,31.03
2023-08-14T13:08:41.921Z,31.06
2023-08-14T13:11:10.600Z,31.05
2023-08-14T13:13:37.673Z,31.03
2023-08-14T13:16:06.225Z,31.03
2023-08-14T13:23:30.448Z,31.02
2023-08-14T13:31:39.513Z,31.08
2023-08-14T13:34:06.533Z,31.12
2023-08-14T13:36:33.558Z,31.15
2023-08-14T13:39:00.588Z,31.15
2023-08-14T13:41:27.693Z,31.15
2023-08-14T13:43:54.692Z,31.16
2023-08-14T13:46:21.665Z,31.18
2023-08-14T13:48:48.566Z,31.22
2023-08-14T13:51:15.592Z,31.26
2023-08-14T13:53:42.998Z,31.29
2023-08-14T13:56:10.089Z,31.32
2023-08-14T13:58:37.633Z,31.31
2023-08-14T14:01:05.112Z,31.31
2023-08-14T14:03:36.092Z,31.33
2023-08-14T14:06:03.424Z,31.30
2023-08-14T14:08:53.660Z,31.30
2023-08-14T14:11:20.998Z,31.31
2023-08-14T14:13:54.848Z,31.33
2023-08-14T14:16:26.462Z,31.35
2023-08-14T14:18:57.663Z,31.40
2023-08-14T14:21:41.688Z,31.40
2023-08-14T14:24:09.529Z,31.41
2023-08-14T14:26:40.808Z,31.41
2023-08-14T14:29:08.155Z,31.38
2023-08-14T14:31:35.753Z,31.37
2023-08-14T14:34:03.174Z,31.38
2023-08-14T14:36:30.667Z,31.38
2023-08-14T14:38:57.867Z,31.37
2023-08-14T14:41:25.087Z,31.37
2023-08-14T14:43:52.365Z,31.35
2023-08-14T14:46:19.923Z,31.34
2023-08-14T14:48:47.009Z,31.32
2023-08-14T14:51:14.032Z,31.29
2023-08-14T14:53:41.113Z,31.26
2023-08-14T14:56:07.977Z,31.22
2023-08-14T14:58:34.894Z,31.22
2023-08-14T15:01:01.838Z,31.24
2023-08-14T15:03:29.273Z,31.23
2023-08-14T15:05:56.596Z,31.21
2023-08-14T15:08:23.464Z,31.18
2023-08-14T15:10:55.500Z,31.19
2023-08-14T15:13:25.413Z,31.20
2023-08-14T15:15:52.322Z,31.21
2023-08-14T15:18:19.553Z,31.21
2023-08-14T15:20:46.651Z,31.20
2023-08-14T15:23:13.500Z,31.16
2023-08-14T15:25:40.931Z,31.14
2023-08-14T15:28:08.019Z,31.08
2023-08-14T15:30:36.805Z,31.02
2023-08-14T15:33:03.978Z,31.02
2023-08-14T15:35:31.671Z,31.01
2023-08-14T15:37:58.524Z,31.02
2023-08-14T15:40:25.868Z,31.02
2023-08-14T15:42:53.409Z,31.01
2023-08-14T15:45:20.434Z,30.97
2023-08-14T15:47:47.689Z,30.96
2023-08-14T15:50:14.963Z,30.97
2023-08-14T15:52:41.863Z,30.95
2023-08-14T15:55:09.534Z,30.95
2023-08-14T15:57:36.540Z,30.93
2023-08-14T16:00:07.993Z,30.90
2023-08-14T16:02:35.521Z,30.89
2023-08-14T16:05:02.756Z,30.87
2023-08-14T16:07:29.615Z,30.82
2023-08-14T16:09:56.559Z,30.77
2023-08-14T16:12:23.833Z,30.73
2023-08-14T16:14:51.082Z,30.70
2023-08-14T16:17:25.874Z,30.69
2023-08-14T16:19:52.910Z,30.66
2023-08-14T16:22:20.841Z,30.60
2023-08-14T16:24:49.594Z,30.59
2023-08-14T16:27:19.806Z,30.58
2023-08-14T16:29:47.659Z,30.55
2023-08-14T16:32:16.183Z,30.51
2023-08-14T16:34:44.018Z,30.44
2023-08-14T16:37:12.782Z,30.36
2023-08-14T16:39:39.944Z,30.30
2023-08-14T16:42:07.781Z,30.24
2023-08-14T16:44:35.402Z,30.17
2023-08-14T16:47:02.378Z,30.11
2023-08-14T16:49:35.650Z,30.03
2023-08-14T16:52:02.825Z,29.94
2023-08-14T16:54:30.059Z,29.83
2023-08-14T16:56:57.368Z,29.71
2023-08-14T16:59:24.561Z,29.60
2023-08-14T17:01:51.624Z,29.51
2023-08-14T17:04:18.915Z,29.42
2023-08-14T17:06:45.949Z,29.31
2023-08-14T17:09:15.384Z,29.20
2023-08-14T17:11:42.592Z,29.07
2023-08-14T17:14:09.768Z,28.99
2023-08-14T17:16:43.508Z,28.88
2023-08-14T17:19:10.877Z,28.78
2023-08-14T17:21:55.255Z,28.65
2023-08-14T17:24:42.684Z,28.50
2023-08-14T17:27:10.581Z,28.36
2023-08-14T17:29:52.796Z,28.25
2023-08-14T17:32:20.603Z,28.12
2023-08-14T17:35:04.515Z,28.00
2023-08-14T17:37:32.301Z,27.85
2023-08-14T17:39:59.960Z,27.73
2023-08-14T17:42:29.858Z,27.61
2023-08-14T17:45:12.405Z,27.46
2023-08-14T17:47:39.777Z,27.32
2023-08-14T17:50:07.049Z,27.21
2023-08-14T17:52:40.372Z,27.09
2023-08-14T17:55:08.668Z,26.97
2023-08-14T17:57:40.385Z,26.85
2023-08-14T18:00:08.643Z,26.71
2023-08-14T18:02:35.493Z,26.60
2023-08-14T18:05:02.339Z,26.51
2023-08-14T18:07:29.144Z,26.37
2023-08-14T18:09:56.681Z,26.23
2023-08-14T18:12:24.752Z,26.09
2023-08-14T18:14:51.544Z,25.96
2023-08-14T18:17:18.721Z,25.84
2023-08-14T18:19:45.927Z,25.72
2023-08-14T18:22:12.730Z,25.61
2023-08-14T18:24:40.158Z,25.51
2023-08-14T18:27:06.899Z,25.39
2023-08-14T18:29:33.761Z,25.25
2023-08-14T18:32:00.501Z,25.11
2023-08-14T18:34:27.444Z,25.01
2023-08-14T18:36:54.253Z,24.93
2023-08-14T18:39:21.103Z,24.83
2023-08-14T18:41:47.935Z,24.71
2023-08-14T18:44:14.768Z,24.63
2023-08-14T18:46:41.624Z,24.55
2023-08-14T18:49:09.032Z,24.45
2023-08-14T18:51:35.957Z,24.37
2023-08-14T18:54:04.018Z,24.29
2023-08-14T18:56:30.794Z,24.21
2023-08-14T18:58:59.497Z,24.13
2023-08-14T19:01:43.995Z,24.08
2023-08-14T19:04:25.741Z,23.98
2023-08-14T19:06:56.586Z,23.89
2023-08-14T19:09:23.348Z,23.81
2023-08-14T19:11:50.155Z,23.73
2023-08-14T19:14:17.174Z,23.66
2023-08-14T19:16:44.045Z,23.60
2023-08-14T19:19:11.001Z,23.54
2023-08-14T19:21:37.857Z,23.48
2023-08-14T19:24:05.048Z,23.43
2023-08-14T19:26:31.936Z,23.37
2023-08-14T19:28:59.138Z,23.31
2023-08-14T19:31:28.967Z,23.25
2023-08-14T19:33:59.971Z,23.18
2023-08-14T19:36:26.796Z,23.11
2023-08-14T19:38:53.674Z,23.01
2023-08-14T19:41:20.553Z,22.95
2023-08-14T19:43:47.350Z,22.91
2023-08-14T19:46:14.202Z,22.86
2023-08-14T19:48:41.206Z,22.79
2023-08-14T19:51:12.822Z,22.72
2023-08-14T19:53:39.628Z,22.66
2023-08-14T19:56:06.969Z,22.61
2023-08-14T19:58:34.366Z,22.54
2023-08-14T20:01:02.621Z,22.49
2023-08-14T20:03:31.517Z,22.42
2023-08-14T20:05:58.685Z,22.36
2023-08-14T20:08:25.592Z,22.29
2023-08-14T20:10:52.414Z,22.22
2023-08-14T20:13:19.227Z,22.16
2023-08-14T20:15:49.234Z,22.10
2023-08-14T20:18:16.813Z,22.05
2023-08-14T20:20:44.772Z,21.98
2023-08-14T20:23:12.160Z,21.90
2023-08-14T20:25:39.027Z,21.85
2023-08-14T20:28:07.087Z,21.81
2023-08-14T20:30:40.566Z,21.77
2023-08-14T20:33:07.950Z,21.71
2023-08-14T20:35:46.243Z,21.65
2023-08-14T20:38:13.754Z,21.60
2023-08-14T20:40:41.340Z,21.58
2023-08-14T20:43:24.037Z,21.56
2023-08-14T20:45:50.905Z,21.57
2023-08-14T20:48:17.791Z,21.55
2023-08-14T20:50:49.469Z,21.53
2023-08-14T20:53:17.157Z,21.48
2023-08-14T20:55:44.596Z,21.43
2023-08-14T20:58:12.351Z,21.38
2023-08-14T21:00:43.800Z,21.36
2023-08-14T21:03:16.378Z,21.31
2023-08-14T21:05:50.656Z,21.26
2023-08-14T21:08:18.045Z,21.22
2023-08-14T21:10:44.887Z,21.17
2023-08-14T21:13:11.742Z,21.14
2023-08-14T21:15:39.137Z,21.08
2023-08-14T21:18:08.505Z,21.02
2023-08-14T21:20:35.386Z,20.97
2023-08-14T21:23:02.353Z,20.91
2023-08-14T21:25:34.890Z,20.86
2023-08-14T21:28:05.194Z,20.82
2023-08-14T21:30:32.117Z,20.78
2023-08-14T21:32:58.849Z,20.75
2023-08-14T21:35:25.642Z,20.70
2023-08-14T21:37:52.456Z,20.64
2023-08-14T21:40:19.210Z,20.61
2023-08-14T21:42:46.728Z,20.57
2023-08-14T21:45:13.448Z,20.55
2023-08-14T21:47:40.281Z,20.53
2023-08-14T21:50:07.514Z,20.49
2023-08-14T21:52:34.388Z,20.47
2023-08-14T21:55:01.102Z,20.46
2023-08-14T21:57:28.113Z,20.43
2023-08-14T21:59:54.854Z,20.39
2023-08-14T22:02:21.728Z,20.34
2023-08-14T22:04:48.596Z,20.28
2023-08-14T22:07:20.539Z,20.23
2023-08-14T22:09:48.464Z,20.20
2023-08-14T22:12:15.604Z,20.16
2023-08-14T22:14:44.824Z,20.12
2023-08-14T22:17:14.518Z,20.07
2023-08-14T22:19:41.324Z,20.04
2023-08-14T22:22:08.110Z,20.00
2023-08-14T22:24:40.640Z,19.97
2023-08-14T22:27:08.356Z,19.92
2023-08-14T22:29:35.200Z,19.89
2023-08-14T22:32:02.192Z,19.85
2023-08-14T22:34:28.946Z,19.82
2023-08-14T22:36:55.722Z,19.79
2023-08-14T22:39:22.465Z,19.77
2023-08-14T22:41:49.262Z,19.75
2023-08-14T22:44:16.005Z,19.71
2023-08-14T22:46:42.827Z,19.67
2023-08-14T22:49:09.642Z,19.62
2023-08-14T22:51:36.422Z,19.59
2023-08-14T22:54:03.868Z,19.56
2023-08-14T22:56:30.690Z,19.52
2023-08-14T22:58:57.486Z,19.48
2023-08-14T23:01:24.315Z,19.44
2023-08-14T23:03:51.208Z,19.43
2023-08-14T23:06:18.044Z,19.40
2023-08-14T23:08:44.893Z,19.37
2023-08-14T23:11:11.732Z,19.35
2023-08-14T23:13:38.528Z,19.30
2023-08-14T23:16:05.545Z,19.27
2023-08-14T23:18:32.389Z,19.24
2023-08-14T23:20:59.189Z,19.19
2023-08-14T23:23:25.873Z,19.14
2023-08-14T23:25:52.753Z,19.10
2023-08-14T23:28:19.586Z,19.05
2023-08-14T23:30:46.388Z,19.00
2023-08-14T23:33:13.215Z,18.96
2023-08-14T23:35:39.989Z,18.91
2023-08-14T23:38:06.790Z,18.86
2023-08-14T23:40:33.609Z,18.84
2023-08-14T23:43:00.386Z,18.82
2023-08-14T23:45:27.180Z,18.80
2023-08-14T23:47:54.125Z,18.77
2023-08-14T23:50:20.964Z,18.76
2023-08-14T23:52:47.790Z,18.74
2023-08-14T23:55:14.763Z,18.73
2023-08-14T23:57:41.627Z,18.72
